sensor_id;sensor_type;location;lat;lon;timestamp;P1;durP1;ratioP1;P2;durP2;ratioP2
70800;SDS011;59616;52.170;5.386;2023-12-07T00:00:35;19.55;;;8.70;;
70800;SDS011;59616;52.170;5.386;2023-12-07T00:03:03;19.40;;;8.20;;
70800;SDS011;59616;52.170;5.386;2023-12-07T00:05:33;18.05;;;8.63;;
70800;SDS011;59616;52.170;5.386;2023-12-07T00:08:01;19.88;;;7.68;;
70800;SDS011;59616;52.170;5.386;2023-12-07T00:10:28;19.02;;;8.18;;
70800;SDS011;59616;52.170;5.386;2023-12-07T00:12:55;16.77;;;7.63;;
70800;SDS011;59616;52.170;5.386;2023-12-07T00:15:23;17.83;;;7.55;;
70800;SDS011;59616;52.170;5.386;2023-12-07T00:20:16;19.92;;;7.40;;
70800;SDS011;59616;52.170;5.386;2023-12-07T00:25:10;22.55;;;7.90;;
70800;SDS011;59616;52.170;5.386;2023-12-07T00:27:38;16.92;;;7.00;;
70800;SDS011;59616;52.170;5.386;2023-12-07T00:30:05;19.45;;;7.53;;
70800;SDS011;59616;52.170;5.386;2023-12-07T00:32:32;19.95;;;8.20;;
70800;SDS011;59616;52.170;5.386;2023-12-07T00:37:26;21.67;;;7.88;;
70800;SDS011;59616;52.170;5.386;2023-12-07T00:39:54;16.92;;;7.28;;
70800;SDS011;59616;52.170;5.386;2023-12-07T00:42:21;21.42;;;7.90;;
70800;SDS011;59616;52.170;5.386;2023-12-07T00:44:48;18.17;;;7.75;;
70800;SDS011;59616;52.170;5.386;2023-12-07T00:49:42;17.33;;;6.75;;
70800;SDS011;59616;52.170;5.386;2023-12-07T00:52:10;20.85;;;8.45;;
70800;SDS011;59616;52.170;5.386;2023-12-07T00:54:37;22.10;;;9.07;;
70800;SDS011;59616;52.170;5.386;2023-12-07T00:57:05;20.90;;;8.90;;
70800;SDS011;59616;52.170;5.386;2023-12-07T00:59:33;18.92;;;8.27;;
70800;SDS011;59616;52.170;5.386;2023-12-07T01:02:01;19.80;;;7.93;;
70800;SDS011;59616;52.170;5.386;2023-12-07T01:04:28;18.10;;;7.28;;
70800;SDS011;59616;52.170;5.386;2023-12-07T01:06:56;18.95;;;7.72;;
70800;SDS011;59616;52.170;5.386;2023-12-07T01:09:24;18.98;;;7.65;;
70800;SDS011;59616;52.170;5.386;2023-12-07T01:11:51;16.95;;;6.90;;
70800;SDS011;59616;52.170;5.386;2023-12-07T01:14:19;17.50;;;7.38;;
70800;SDS011;59616;52.170;5.386;2023-12-07T01:16:46;19.65;;;7.72;;
70800;SDS011;59616;52.170;5.386;2023-12-07T01:19:13;16.02;;;7.32;;
70800;SDS011;59616;52.170;5.386;2023-12-07T01:21:41;17.23;;;7.57;;
70800;SDS011;59616;52.170;5.386;2023-12-07T01:24:09;17.77;;;7.75;;
70800;SDS011;59616;52.170;5.386;2023-12-07T01:26:41;16.75;;;7.53;;
70800;SDS011;59616;52.170;5.386;2023-12-07T01:29:09;18.58;;;7.95;;
70800;SDS011;59616;52.170;5.386;2023-12-07T01:31:36;19.08;;;7.60;;
70800;SDS011;59616;52.170;5.386;2023-12-07T01:34:03;18.33;;;7.40;;
70800;SDS011;59616;52.170;5.386;2023-12-07T01:36:31;18.98;;;7.68;;
70800;SDS011;59616;52.170;5.386;2023-12-07T01:38:58;17.92;;;7.53;;
70800;SDS011;59616;52.170;5.386;2023-12-07T01:41:26;16.95;;;7.47;;
70800;SDS011;59616;52.170;5.386;2023-12-07T01:43:53;16.70;;;6.97;;
70800;SDS011;59616;52.170;5.386;2023-12-07T01:46:21;18.13;;;7.50;;
70800;SDS011;59616;52.170;5.386;2023-12-07T01:48:48;17.00;;;7.72;;
70800;SDS011;59616;52.170;5.386;2023-12-07T01:51:16;18.00;;;7.57;;
70800;SDS011;59616;52.170;5.386;2023-12-07T01:53:44;18.42;;;7.53;;
70800;SDS011;59616;52.170;5.386;2023-12-07T01:56:11;15.63;;;7.43;;
70800;SDS011;59616;52.170;5.386;2023-12-07T01:58:38;16.83;;;7.18;;
70800;SDS011;59616;52.170;5.386;2023-12-07T02:01:06;18.08;;;7.00;;
70800;SDS011;59616;52.170;5.386;2023-12-07T02:03:33;16.38;;;6.65;;
70800;SDS011;59616;52.170;5.386;2023-12-07T02:06:01;13.77;;;6.88;;
70800;SDS011;59616;52.170;5.386;2023-12-07T02:08:28;17.67;;;7.40;;
70800;SDS011;59616;52.170;5.386;2023-12-07T02:10:55;20.65;;;7.38;;
70800;SDS011;59616;52.170;5.386;2023-12-07T02:13:23;18.52;;;7.55;;
70800;SDS011;59616;52.170;5.386;2023-12-07T02:15:50;19.48;;;7.80;;
70800;SDS011;59616;52.170;5.386;2023-12-07T02:18:20;18.13;;;7.47;;
70800;SDS011;59616;52.170;5.386;2023-12-07T02:20:53;22.10;;;7.85;;
70800;SDS011;59616;52.170;5.386;2023-12-07T02:23:22;19.48;;;8.07;;
70800;SDS011;59616;52.170;5.386;2023-12-07T02:26:10;17.77;;;7.70;;
70800;SDS011;59616;52.170;5.386;2023-12-07T02:28:38;18.85;;;7.97;;
70800;SDS011;59616;52.170;5.386;2023-12-07T02:31:05;18.50;;;7.15;;
70800;SDS011;59616;52.170;5.386;2023-12-07T02:33:33;17.23;;;7.50;;
70800;SDS011;59616;52.170;5.386;2023-12-07T02:36:00;17.05;;;7.40;;
70800;SDS011;59616;52.170;5.386;2023-12-07T02:38:28;20.42;;;7.97;;
70800;SDS011;59616;52.170;5.386;2023-12-07T02:40:55;17.48;;;7.22;;
70800;SDS011;59616;52.170;5.386;2023-12-07T02:43:24;18.92;;;7.50;;
70800;SDS011;59616;52.170;5.386;2023-12-07T02:45:51;18.25;;;7.35;;
70800;SDS011;59616;52.170;5.386;2023-12-07T02:48:20;15.25;;;6.57;;
70800;SDS011;59616;52.170;5.386;2023-12-07T02:50:47;16.17;;;7.07;;
70800;SDS011;59616;52.170;5.386;2023-12-07T02:53:14;18.40;;;7.43;;
70800;SDS011;59616;52.170;5.386;2023-12-07T02:58:08;16.75;;;6.07;;
70800;SDS011;59616;52.170;5.386;2023-12-07T03:00:36;15.25;;;6.82;;
70800;SDS011;59616;52.170;5.386;2023-12-07T03:03:03;16.05;;;7.22;;
70800;SDS011;59616;52.170;5.386;2023-12-07T03:05:30;16.63;;;6.80;;
70800;SDS011;59616;52.170;5.386;2023-12-07T03:07:58;15.98;;;6.82;;
70800;SDS011;59616;52.170;5.386;2023-12-07T03:12:51;16.25;;;6.43;;
70800;SDS011;59616;52.170;5.386;2023-12-07T03:17:45;13.68;;;5.88;;
70800;SDS011;59616;52.170;5.386;2023-12-07T03:20:13;13.88;;;6.25;;
70800;SDS011;59616;52.170;5.386;2023-12-07T03:22:40;16.60;;;6.43;;
70800;SDS011;59616;52.170;5.386;2023-12-07T03:25:08;16.55;;;7.05;;
70800;SDS011;59616;52.170;5.386;2023-12-07T03:27:35;16.70;;;7.25;;
70800;SDS011;59616;52.170;5.386;2023-12-07T03:32:29;17.08;;;6.70;;
70800;SDS011;59616;52.170;5.386;2023-12-07T03:37:24;18.08;;;6.72;;
70800;SDS011;59616;52.170;5.386;2023-12-07T03:42:18;14.77;;;6.40;;
70800;SDS011;59616;52.170;5.386;2023-12-07T03:45:05;16.10;;;6.78;;
70800;SDS011;59616;52.170;5.386;2023-12-07T03:47:33;16.45;;;6.80;;
70800;SDS011;59616;52.170;5.386;2023-12-07T03:52:27;14.98;;;6.85;;
70800;SDS011;59616;52.170;5.386;2023-12-07T03:54:54;16.25;;;7.05;;
70800;SDS011;59616;52.170;5.386;2023-12-07T03:57:22;15.57;;;6.43;;
70800;SDS011;59616;52.170;5.386;2023-12-07T03:59:49;15.05;;;6.70;;
70800;SDS011;59616;52.170;5.386;2023-12-07T04:02:16;16.10;;;6.53;;
70800;SDS011;59616;52.170;5.386;2023-12-07T04:04:44;16.20;;;6.72;;
70800;SDS011;59616;52.170;5.386;2023-12-07T04:09:38;17.88;;;6.60;;
70800;SDS011;59616;52.170;5.386;2023-12-07T04:14:32;16.13;;;6.90;;
70800;SDS011;59616;52.170;5.386;2023-12-07T04:16:59;16.58;;;7.15;;
70800;SDS011;59616;52.170;5.386;2023-12-07T04:19:26;16.50;;;7.32;;
70800;SDS011;59616;52.170;5.386;2023-12-07T04:21:54;15.48;;;6.45;;
70800;SDS011;59616;52.170;5.386;2023-12-07T04:24:21;18.08;;;7.10;;
70800;SDS011;59616;52.170;5.386;2023-12-07T04:29:15;17.08;;;6.93;;
70800;SDS011;59616;52.170;5.386;2023-12-07T04:31:42;16.63;;;7.32;;
70800;SDS011;59616;52.170;5.386;2023-12-07T04:34:10;17.92;;;7.85;;
70800;SDS011;59616;52.170;5.386;2023-12-07T04:36:37;16.88;;;7.45;;
70800;SDS011;59616;52.170;5.386;2023-12-07T04:41:31;16.80;;;7.55;;
70800;SDS011;59616;52.170;5.386;2023-12-07T04:43:59;16.35;;;7.70;;
70800;SDS011;59616;52.170;5.386;2023-12-07T04:46:26;18.75;;;7.47;;
70800;SDS011;59616;52.170;5.386;2023-12-07T04:48:55;16.42;;;7.18;;
70800;SDS011;59616;52.170;5.386;2023-12-07T04:51:22;16.92;;;7.60;;
70800;SDS011;59616;52.170;5.386;2023-12-07T04:53:49;16.33;;;7.32;;
70800;SDS011;59616;52.170;5.386;2023-12-07T04:56:17;20.10;;;7.85;;
70800;SDS011;59616;52.170;5.386;2023-12-07T04:58:44;19.50;;;7.43;;
70800;SDS011;59616;52.170;5.386;2023-12-07T05:03:39;17.23;;;7.35;;
70800;SDS011;59616;52.170;5.386;2023-12-07T05:06:07;19.38;;;7.90;;
70800;SDS011;59616;52.170;5.386;2023-12-07T05:08:35;18.33;;;7.53;;
70800;SDS011;59616;52.170;5.386;2023-12-07T05:11:02;17.80;;;7.70;;
70800;SDS011;59616;52.170;5.386;2023-12-07T05:13:29;20.90;;;8.40;;
70800;SDS011;59616;52.170;5.386;2023-12-07T05:15:57;22.65;;;9.05;;
70800;SDS011;59616;52.170;5.386;2023-12-07T05:20:51;16.90;;;7.00;;
70800;SDS011;59616;52.170;5.386;2023-12-07T05:23:18;17.35;;;7.85;;
70800;SDS011;59616;52.170;5.386;2023-12-07T05:25:45;17.10;;;7.70;;
70800;SDS011;59616;52.170;5.386;2023-12-07T05:28:13;18.92;;;7.75;;
70800;SDS011;59616;52.170;5.386;2023-12-07T05:30:40;18.85;;;7.78;;
70800;SDS011;59616;52.170;5.386;2023-12-07T05:33:12;17.40;;;7.55;;
70800;SDS011;59616;52.170;5.386;2023-12-07T05:35:39;19.15;;;8.57;;
70800;SDS011;59616;52.170;5.386;2023-12-07T05:40:33;19.48;;;8.02;;
70800;SDS011;59616;52.170;5.386;2023-12-07T05:43:01;19.85;;;7.85;;
70800;SDS011;59616;52.170;5.386;2023-12-07T05:45:28;21.02;;;8.25;;
70800;SDS011;59616;52.170;5.386;2023-12-07T05:47:56;19.90;;;8.23;;
70800;SDS011;59616;52.170;5.386;2023-12-07T05:50:23;31.05;;;8.70;;
70800;SDS011;59616;52.170;5.386;2023-12-07T05:52:51;19.75;;;8.55;;
70800;SDS011;59616;52.170;5.386;2023-12-07T05:55:18;27.75;;;9.05;;
70800;SDS011;59616;52.170;5.386;2023-12-07T05:57:45;24.80;;;8.48;;
70800;SDS011;59616;52.170;5.386;2023-12-07T06:00:13;21.83;;;8.45;;
70800;SDS011;59616;52.170;5.386;2023-12-07T06:02:42;27.70;;;9.18;;
70800;SDS011;59616;52.170;5.386;2023-12-07T06:05:09;25.50;;;8.63;;
70800;SDS011;59616;52.170;5.386;2023-12-07T06:07:37;25.55;;;8.77;;
70800;SDS011;59616;52.170;5.386;2023-12-07T06:10:04;30.33;;;10.13;;
70800;SDS011;59616;52.170;5.386;2023-12-07T06:12:32;28.90;;;8.70;;
70800;SDS011;59616;52.170;5.386;2023-12-07T06:14:59;37.42;;;10.73;;
70800;SDS011;59616;52.170;5.386;2023-12-07T06:19:54;59.92;;;10.07;;
70800;SDS011;59616;52.170;5.386;2023-12-07T06:22:21;40.97;;;10.02;;
70800;SDS011;59616;52.170;5.386;2023-12-07T06:24:48;48.28;;;10.90;;
70800;SDS011;59616;52.170;5.386;2023-12-07T06:27:16;36.25;;;9.85;;
70800;SDS011;59616;52.170;5.386;2023-12-07T06:29:44;32.80;;;11.05;;
70800;SDS011;59616;52.170;5.386;2023-12-07T06:32:11;36.03;;;9.48;;
70800;SDS011;59616;52.170;5.386;2023-12-07T06:34:39;41.63;;;9.95;;
70800;SDS011;59616;52.170;5.386;2023-12-07T06:37:07;48.63;;;10.50;;
70800;SDS011;59616;52.170;5.386;2023-12-07T06:39:36;34.20;;;10.15;;
70800;SDS011;59616;52.170;5.386;2023-12-07T06:42:04;33.38;;;10.07;;
70800;SDS011;59616;52.170;5.386;2023-12-07T06:44:31;35.50;;;10.20;;
70800;SDS011;59616;52.170;5.386;2023-12-07T06:49:25;156.00;;;16.05;;
70800;SDS011;59616;52.170;5.386;2023-12-07T06:52:08;35.97;;;10.20;;
70800;SDS011;59616;52.170;5.386;2023-12-07T06:54:37;25.33;;;10.25;;
70800;SDS011;59616;52.170;5.386;2023-12-07T06:57:07;48.78;;;10.30;;
70800;SDS011;59616;52.170;5.386;2023-12-07T07:02:01;33.53;;;10.27;;
70800;SDS011;59616;52.170;5.386;2023-12-07T07:04:28;47.28;;;11.00;;
70800;SDS011;59616;52.170;5.386;2023-12-07T07:06:56;33.50;;;10.70;;
70800;SDS011;59616;52.170;5.386;2023-12-07T07:09:23;35.72;;;10.93;;
70800;SDS011;59616;52.170;5.386;2023-12-07T07:11:51;47.85;;;11.68;;
70800;SDS011;59616;52.170;5.386;2023-12-07T07:14:20;45.17;;;10.80;;
70800;SDS011;59616;52.170;5.386;2023-12-07T07:19:14;43.33;;;9.85;;
70800;SDS011;59616;52.170;5.386;2023-12-07T07:21:43;35.72;;;10.18;;
70800;SDS011;59616;52.170;5.386;2023-12-07T07:24:11;42.30;;;10.77;;
70800;SDS011;59616;52.170;5.386;2023-12-07T07:26:39;41.47;;;10.55;;
70800;SDS011;59616;52.170;5.386;2023-12-07T07:31:33;39.85;;;10.13;;
70800;SDS011;59616;52.170;5.386;2023-12-07T07:34:02;28.33;;;9.98;;
70800;SDS011;59616;52.170;5.386;2023-12-07T07:36:30;28.80;;;10.30;;
70800;SDS011;59616;52.170;5.386;2023-12-07T07:38:58;51.08;;;10.82;;
70800;SDS011;59616;52.170;5.386;2023-12-07T07:41:25;51.90;;;11.05;;
70800;SDS011;59616;52.170;5.386;2023-12-07T07:43:53;39.03;;;10.10;;
70800;SDS011;59616;52.170;5.386;2023-12-07T07:46:20;49.60;;;11.00;;
70800;SDS011;59616;52.170;5.386;2023-12-07T07:48:48;31.73;;;10.63;;
70800;SDS011;59616;52.170;5.386;2023-12-07T07:51:15;35.35;;;10.13;;
70800;SDS011;59616;52.170;5.386;2023-12-07T07:53:42;67.63;;;12.50;;
70800;SDS011;59616;52.170;5.386;2023-12-07T07:56:09;65.95;;;11.98;;
70800;SDS011;59616;52.170;5.386;2023-12-07T07:58:37;59.15;;;12.40;;
70800;SDS011;59616;52.170;5.386;2023-12-07T08:01:04;51.72;;;11.13;;
70800;SDS011;59616;52.170;5.386;2023-12-07T08:03:32;45.60;;;10.90;;
70800;SDS011;59616;52.170;5.386;2023-12-07T08:05:59;39.17;;;10.95;;
70800;SDS011;59616;52.170;5.386;2023-12-07T08:08:26;40.47;;;11.25;;
70800;SDS011;59616;52.170;5.386;2023-12-07T08:10:54;39.33;;;12.88;;
70800;SDS011;59616;52.170;5.386;2023-12-07T08:13:22;39.58;;;10.70;;
70800;SDS011;59616;52.170;5.386;2023-12-07T08:15:49;33.15;;;10.02;;
70800;SDS011;59616;52.170;5.386;2023-12-07T08:18:20;32.88;;;11.50;;
70800;SDS011;59616;52.170;5.386;2023-12-07T08:20:49;50.78;;;10.75;;
70800;SDS011;59616;52.170;5.386;2023-12-07T08:25:42;40.22;;;10.18;;
70800;SDS011;59616;52.170;5.386;2023-12-07T08:28:10;44.95;;;11.05;;
70800;SDS011;59616;52.170;5.386;2023-12-07T08:30:37;32.42;;;10.85;;
70800;SDS011;59616;52.170;5.386;2023-12-07T08:33:05;48.97;;;10.80;;
70800;SDS011;59616;52.170;5.386;2023-12-07T08:35:32;38.40;;;10.43;;
70800;SDS011;59616;52.170;5.386;2023-12-07T08:37:59;69.45;;;10.77;;
70800;SDS011;59616;52.170;5.386;2023-12-07T08:40:26;33.40;;;9.80;;
70800;SDS011;59616;52.170;5.386;2023-12-07T08:42:54;48.53;;;10.18;;
70800;SDS011;59616;52.170;5.386;2023-12-07T08:45:21;45.50;;;10.65;;
70800;SDS011;59616;52.170;5.386;2023-12-07T08:47:50;40.15;;;10.65;;
70800;SDS011;59616;52.170;5.386;2023-12-07T08:50:17;51.50;;;11.60;;
70800;SDS011;59616;52.170;5.386;2023-12-07T08:52:44;36.05;;;10.32;;
70800;SDS011;59616;52.170;5.386;2023-12-07T08:55:21;35.65;;;10.35;;
70800;SDS011;59616;52.170;5.386;2023-12-07T08:57:49;41.67;;;10.98;;
70800;SDS011;59616;52.170;5.386;2023-12-07T09:02:43;41.88;;;9.95;;
70800;SDS011;59616;52.170;5.386;2023-12-07T09:05:14;41.65;;;11.05;;
70800;SDS011;59616;52.170;5.386;2023-12-07T09:07:41;29.00;;;10.63;;
70800;SDS011;59616;52.170;5.386;2023-12-07T09:10:09;41.45;;;10.75;;
70800;SDS011;59616;52.170;5.386;2023-12-07T09:12:36;33.92;;;9.75;;
70800;SDS011;59616;52.170;5.386;2023-12-07T09:15:06;40.05;;;9.57;;
70800;SDS011;59616;52.170;5.386;2023-12-07T09:17:40;39.80;;;9.50;;
70800;SDS011;59616;52.170;5.386;2023-12-07T09:20:08;30.70;;;9.48;;
70800;SDS011;59616;52.170;5.386;2023-12-07T09:22:44;34.30;;;9.90;;
70800;SDS011;59616;52.170;5.386;2023-12-07T09:25:12;38.65;;;9.82;;
70800;SDS011;59616;52.170;5.386;2023-12-07T09:27:40;43.92;;;10.98;;
70800;SDS011;59616;52.170;5.386;2023-12-07T09:30:08;29.38;;;9.60;;
70800;SDS011;59616;52.170;5.386;2023-12-07T09:32:38;43.25;;;11.35;;
70800;SDS011;59616;52.170;5.386;2023-12-07T09:35:06;35.47;;;10.18;;
70800;SDS011;59616;52.170;5.386;2023-12-07T09:37:34;48.58;;;10.38;;
70800;SDS011;59616;52.170;5.386;2023-12-07T09:40:01;36.00;;;9.85;;
70800;SDS011;59616;52.170;5.386;2023-12-07T09:42:31;38.08;;;10.32;;
70800;SDS011;59616;52.170;5.386;2023-12-07T09:45:02;32.50;;;9.65;;
70800;SDS011;59616;52.170;5.386;2023-12-07T09:47:31;43.22;;;8.80;;
70800;SDS011;59616;52.170;5.386;2023-12-07T09:50:04;22.25;;;7.88;;
70800;SDS011;59616;52.170;5.386;2023-12-07T09:52:32;25.85;;;8.23;;
70800;SDS011;59616;52.170;5.386;2023-12-07T09:54:59;28.88;;;7.82;;
70800;SDS011;59616;52.170;5.386;2023-12-07T09:57:28;25.25;;;8.60;;
70800;SDS011;59616;52.170;5.386;2023-12-07T09:59:57;21.73;;;7.43;;
70800;SDS011;59616;52.170;5.386;2023-12-07T10:05:04;18.92;;;6.05;;
70800;SDS011;59616;52.170;5.386;2023-12-07T10:07:33;26.83;;;6.90;;
70800;SDS011;59616;52.170;5.386;2023-12-07T10:10:04;20.60;;;7.10;;
